createdAt,value
2022-10-12T00:01:29.199Z,6.50
2022-10-12T00:03:55.890Z,6.23
2022-10-12T00:06:24.719Z,9.50
2022-10-12T00:08:53.962Z,9.03
2022-10-12T00:11:24.870Z,6.57
2022-10-12T00:13:52.482Z,7.30
2022-10-12T00:16:23.071Z,6.60
2022-10-12T00:18:51.479Z,4.10
2022-10-12T00:21:18.434Z,6.10
2022-10-12T00:23:48.019Z,11.93
2022-10-12T00:26:22.148Z,14.03
2022-10-12T00:28:54.122Z,7.20
2022-10-12T00:34:10.883Z,5.83
2022-10-12T00:36:37.683Z,6.80
2022-10-12T00:39:06.155Z,9.80
2022-10-12T00:41:37.927Z,5.13
2022-10-12T00:44:24.791Z,7.33
2022-10-12T00:46:53.323Z,12.03
2022-10-12T00:49:25.690Z,5.53
2022-10-12T00:51:56.419Z,7.83
2022-10-12T00:54:28.866Z,8.33
2022-10-12T00:56:57.495Z,8.17
2022-10-12T00:59:30.947Z,7.70
2022-10-12T01:01:57.618Z,13.80
2022-10-12T01:04:25.188Z,11.93
2022-10-12T01:06:52.750Z,6.67
2022-10-12T01:09:21.084Z,6.40
2022-10-12T01:11:48.234Z,12.83
2022-10-12T01:14:15.359Z,13.50
2022-10-12T01:16:51.029Z,12.20
2022-10-12T01:19:56.998Z,7.53
2022-10-12T01:22:24.234Z,9.27
2022-10-12T01:25:13.749Z,6.83
2022-10-12T01:27:49.433Z,7.90
2022-10-12T01:30:18.646Z,15.77
2022-10-12T01:33:02.497Z,14.97
2022-10-12T01:35:56.337Z,10.53
2022-10-12T01:38:38.605Z,11.07
2022-10-12T01:41:14.122Z,10.87
2022-10-12T01:43:44.632Z,8.37
2022-10-12T01:46:17.272Z,11.50
2022-10-12T01:48:46.659Z,9.30
2022-10-12T01:51:18.971Z,8.83
2022-10-12T01:54:07.185Z,6.13
2022-10-12T01:56:50.869Z,7.50
2022-10-12T01:59:45.414Z,4.03
2022-10-12T02:02:24.641Z,5.90
2022-10-12T02:05:10.399Z,5.10
2022-10-12T02:07:51.328Z,8.40
2022-10-12T02:10:42.977Z,7.30
2022-10-12T02:13:13.377Z,3.97
2022-10-12T02:15:43.140Z,6.63
2022-10-12T02:18:12.247Z,4.47
2022-10-12T02:20:40.611Z,8.90
2022-10-12T02:23:08.431Z,7.20
2022-10-12T02:25:35.543Z,5.27
2022-10-12T02:28:11.877Z,11.90
2022-10-12T02:30:52.519Z,11.63
2022-10-12T02:33:59.769Z,8.30
2022-10-12T02:36:35.806Z,6.17
2022-10-12T02:39:25.260Z,5.50
2022-10-12T02:41:55.837Z,5.57
2022-10-12T02:44:28.864Z,5.33
2022-10-12T02:46:58.714Z,4.43
2022-10-12T02:49:27.785Z,13.63
2022-10-12T02:51:55.563Z,6.30
2022-10-12T02:54:22.252Z,8.20
2022-10-12T02:56:49.131Z,4.70
2022-10-12T02:59:17.299Z,4.30
2022-10-12T03:01:44.388Z,7.77
2022-10-12T03:04:11.327Z,8.37
2022-10-12T03:06:38.100Z,4.43
2022-10-12T03:09:05.387Z,4.23
2022-10-12T03:11:32.364Z,4.70
2022-10-12T03:13:59.731Z,5.23
2022-10-12T03:16:26.532Z,4.30
2022-10-12T03:18:53.256Z,6.07
2022-10-12T03:21:20.158Z,5.33
2022-10-12T03:23:47.100Z,9.50
2022-10-12T03:26:13.924Z,3.53
2022-10-12T03:28:40.640Z,7.80
2022-10-12T03:31:07.327Z,8.00
2022-10-12T03:33:34.119Z,9.30
2022-10-12T03:36:00.953Z,4.70
2022-10-12T03:38:27.747Z,5.13
2022-10-12T03:40:54.448Z,3.73
2022-10-12T03:43:21.331Z,3.83
2022-10-12T03:45:48.006Z,9.13
2022-10-12T03:48:14.717Z,6.40
2022-10-12T03:50:41.421Z,4.97
2022-10-12T03:53:08.178Z,6.93
2022-10-12T03:55:34.918Z,3.93
2022-10-12T03:58:01.673Z,8.23
2022-10-12T04:00:28.619Z,6.50
2022-10-12T04:02:55.597Z,7.00
2022-10-12T04:05:22.750Z,10.63
2022-10-12T04:07:49.491Z,6.70
2022-10-12T04:10:16.418Z,3.90
2022-10-12T04:12:43.122Z,3.40
2022-10-12T04:15:10.160Z,5.80
2022-10-12T04:17:37.131Z,5.97
2022-10-12T04:20:04.516Z,7.17
2022-10-12T04:22:31.304Z,9.23
2022-10-12T04:24:57.965Z,4.80
2022-10-12T04:27:24.671Z,10.43
2022-10-12T04:29:51.403Z,8.10
2022-10-12T04:32:18.034Z,5.87
2022-10-12T04:34:44.666Z,3.83
2022-10-12T04:37:11.314Z,6.53
2022-10-12T04:39:38.073Z,5.67
2022-10-12T04:42:06.822Z,8.03
2022-10-12T04:44:33.912Z,6.77
2022-10-12T04:47:01.546Z,4.57
2022-10-12T04:49:28.204Z,7.60
2022-10-12T04:51:54.908Z,6.67
2022-10-12T04:54:21.580Z,6.90
2022-10-12T04:56:48.451Z,8.37
2022-10-12T04:59:15.285Z,10.50
2022-10-12T05:01:42.170Z,8.83
2022-10-12T05:04:09.021Z,13.63
2022-10-12T05:06:35.811Z,4.30
2022-10-12T05:09:02.936Z,8.80
2022-10-12T05:11:29.583Z,17.17
2022-10-12T05:13:56.213Z,5.83
2022-10-12T05:16:23.208Z,5.87
2022-10-12T05:18:50.069Z,24.07
2022-10-12T05:21:17.079Z,10.47
2022-10-12T05:23:43.771Z,8.73
2022-10-12T05:26:10.458Z,10.17
2022-10-12T05:28:40.900Z,5.03
2022-10-12T05:31:08.095Z,7.33
2022-10-12T05:33:34.725Z,5.70
2022-10-12T05:36:01.410Z,5.53
2022-10-12T05:38:28.085Z,10.57
2022-10-12T05:41:00.187Z,10.10
2022-10-12T05:43:27.386Z,6.80
2022-10-12T05:45:54.171Z,5.47
2022-10-12T05:48:20.878Z,11.77
2022-10-12T05:50:47.540Z,6.23
2022-10-12T05:53:14.193Z,8.30
2022-10-12T05:55:40.918Z,7.70
2022-10-12T05:58:07.708Z,12.80
2022-10-12T06:00:34.364Z,12.37
2022-10-12T06:03:01.052Z,7.13
2022-10-12T06:05:27.728Z,5.53
2022-10-12T06:07:54.361Z,8.87
2022-10-12T06:10:21.069Z,15.33
2022-10-12T06:12:47.735Z,11.70
2022-10-12T06:15:14.438Z,7.00
2022-10-12T06:17:41.092Z,4.70
2022-10-12T06:20:08.135Z,12.10
2022-10-12T06:22:35.286Z,11.87
2022-10-12T06:25:02.182Z,12.87
2022-10-12T06:27:28.853Z,7.80
2022-10-12T06:29:55.505Z,11.43
2022-10-12T06:32:22.158Z,6.97
2022-10-12T06:34:48.808Z,7.27
2022-10-12T06:37:37.040Z,5.47
2022-10-12T06:40:02.111Z,12.40
2022-10-12T06:42:29.298Z,5.60
2022-10-12T06:44:55.947Z,8.90
2022-10-12T06:47:22.739Z,7.47
2022-10-12T06:49:49.452Z,9.20
2022-10-12T06:52:16.138Z,8.97
2022-10-12T06:54:42.840Z,10.90
2022-10-12T06:57:09.486Z,11.43
2022-10-12T06:59:36.115Z,14.67
2022-10-12T07:02:02.957Z,8.87
2022-10-12T07:04:29.656Z,7.80
2022-10-12T07:06:56.366Z,14.07
2022-10-12T07:09:23.053Z,14.70
2022-10-12T07:11:49.767Z,9.80
2022-10-12T07:14:16.643Z,10.97
2022-10-12T07:16:43.571Z,13.00
2022-10-12T07:19:10.252Z,17.13
2022-10-12T07:21:36.933Z,23.40
2022-10-12T07:24:03.918Z,12.93
2022-10-12T07:26:31.631Z,15.50
2022-10-12T07:28:58.564Z,9.90
2022-10-12T07:31:25.285Z,10.07
2022-10-12T07:33:51.929Z,13.33
2022-10-12T07:36:21.675Z,14.00
2022-10-12T07:38:49.255Z,7.17
2022-10-12T07:41:16.170Z,12.93
2022-10-12T07:43:43.068Z,8.10
2022-10-12T07:46:09.957Z,13.83
2022-10-12T07:48:37.853Z,10.50
2022-10-12T07:51:05.628Z,10.63
2022-10-12T07:53:34.804Z,7.83
2022-10-12T07:56:02.582Z,13.93
2022-10-12T07:58:29.300Z,11.93
2022-10-12T08:00:56.005Z,16.80
2022-10-12T08:03:22.740Z,14.60
2022-10-12T08:05:49.386Z,13.07
2022-10-12T08:08:16.031Z,26.03
2022-10-12T08:10:42.859Z,14.53
2022-10-12T08:13:09.469Z,22.60
2022-10-12T08:15:36.117Z,24.23
2022-10-12T08:18:02.777Z,15.93
2022-10-12T08:20:29.461Z,29.17
2022-10-12T08:22:56.453Z,19.60
2022-10-12T08:25:23.225Z,12.57
2022-10-12T08:27:49.934Z,20.37
2022-10-12T08:30:16.753Z,16.03
2022-10-12T08:32:43.479Z,23.33
2022-10-12T08:35:10.122Z,13.30
2022-10-12T08:37:37.004Z,12.97
2022-10-12T08:40:04.121Z,15.03
2022-10-12T08:43:10.039Z,13.20
2022-10-12T08:45:52.652Z,25.50
2022-10-12T08:48:26.879Z,15.83
2022-10-12T08:51:01.415Z,22.73
2022-10-12T08:53:35.652Z,18.23
2022-10-12T08:56:02.345Z,10.90
2022-10-12T08:58:33.914Z,23.63
2022-10-12T09:01:38.413Z,9.40
2022-10-12T09:04:05.126Z,18.30
2022-10-12T09:06:39.822Z,20.50
2022-10-12T09:09:37.913Z,17.23
2022-10-12T09:12:25.458Z,17.10
2022-10-12T09:14:57.290Z,16.33
2022-10-12T09:17:29.620Z,16.97
2022-10-12T09:20:19.029Z,19.90
2022-10-12T09:22:53.230Z,22.27
2022-10-12T09:25:25.197Z,17.93
2022-10-12T09:27:52.324Z,19.47
2022-10-12T09:30:20.367Z,17.70
2022-10-12T09:33:05.971Z,23.80
2022-10-12T09:35:33.551Z,15.43
2022-10-12T09:38:01.564Z,19.57
2022-10-12T09:40:33.999Z,12.97
2022-10-12T09:43:02.786Z,25.10
2022-10-12T09:45:33.135Z,22.93
2022-10-12T09:48:16.554Z,14.37
2022-10-12T09:51:00.386Z,29.97
2022-10-12T09:53:32.472Z,15.60
2022-10-12T09:56:10.684Z,20.47
2022-10-12T09:59:03.656Z,20.17
2022-10-12T10:01:35.040Z,22.10
2022-10-12T10:04:22.701Z,16.67
2022-10-12T10:06:50.722Z,17.67
2022-10-12T10:09:35.394Z,22.93
2022-10-12T10:12:12.911Z,21.37
2022-10-12T10:14:43.062Z,18.00
2022-10-12T10:17:14.968Z,20.53
2022-10-12T10:19:50.328Z,20.73
2022-10-12T10:22:17.926Z,20.43
2022-10-12T10:24:59.003Z,14.20
2022-10-12T10:27:37.486Z,14.27
2022-10-12T10:30:29.856Z,21.60
2022-10-12T10:33:15.462Z,14.90
2022-10-12T10:35:55.933Z,25.30
2022-10-12T10:38:22.928Z,25.10
2022-10-12T10:40:55.498Z,24.43
2022-10-12T10:43:27.877Z,25.97
2022-10-12T10:46:03.267Z,22.47
2022-10-12T10:48:50.998Z,23.90
2022-10-12T10:51:17.732Z,18.30
2022-10-12T10:53:47.898Z,36.50
2022-10-12T10:56:21.857Z,31.53
2022-10-12T10:58:56.744Z,17.90
2022-10-12T11:01:32.353Z,30.13
2022-10-12T11:04:07.820Z,22.23
2022-10-12T11:06:58.115Z,20.47
2022-10-12T11:09:31.077Z,20.83
2022-10-12T11:12:08.017Z,12.70
2022-10-12T11:14:43.876Z,22.63
2022-10-12T11:17:20.300Z,13.30
2022-10-12T11:19:58.434Z,19.47
2022-10-12T11:22:41.035Z,16.97
2022-10-12T11:25:18.492Z,17.20
2022-10-12T11:27:46.606Z,17.27
2022-10-12T11:30:21.614Z,13.70
2022-10-12T11:33:22.425Z,17.97
2022-10-12T11:35:49.963Z,16.70
2022-10-12T11:38:41.800Z,14.20
2022-10-12T11:41:36.647Z,16.30
2022-10-12T11:44:16.721Z,13.70
2022-10-12T11:46:53.577Z,22.07
2022-10-12T11:49:28.377Z,16.53
2022-10-12T11:52:05.142Z,17.63
2022-10-12T11:54:40.310Z,14.37
2022-10-12T11:57:13.752Z,13.13
2022-10-12T11:59:55.474Z,12.30
2022-10-12T12:02:38.643Z,11.93
2022-10-12T12:05:07.325Z,16.50
2022-10-12T12:07:43.432Z,21.50
2022-10-12T12:10:25.459Z,12.27
2022-10-12T12:13:14.686Z,14.73
2022-10-12T12:15:52.377Z,17.37
2022-10-12T12:18:25.283Z,16.63
2022-10-12T12:21:03.948Z,11.07
2022-10-12T12:23:39.577Z,15.43
2022-10-12T12:26:16.490Z,10.40
2022-10-12T12:28:43.486Z,15.43
2022-10-12T12:31:22.459Z,16.63
2022-10-12T12:34:04.415Z,14.70
2022-10-12T12:36:40.815Z,17.03
2022-10-12T12:39:20.229Z,17.10
2022-10-12T12:42:04.958Z,21.73
2022-10-12T12:44:36.063Z,14.53
2022-10-12T12:47:06.010Z,12.73
2022-10-12T12:49:52.740Z,14.83
2022-10-12T12:52:19.390Z,19.50
2022-10-12T12:54:55.254Z,12.60
2022-10-12T12:57:27.681Z,14.17
2022-10-12T12:59:54.284Z,26.40
2022-10-12T13:02:30.003Z,13.60
2022-10-12T13:05:17.762Z,16.73
2022-10-12T13:07:52.517Z,15.50
2022-10-12T13:10:49.562Z,19.00
2022-10-12T13:13:39.498Z,15.83
2022-10-12T13:17:09.423Z,17.87
2022-10-12T13:19:15.772Z,10.83
2022-10-12T13:21:49.498Z,18.20
2022-10-12T13:24:29.935Z,13.97
2022-10-12T13:27:16.203Z,22.60
2022-10-12T13:29:49.430Z,17.17
2022-10-12T13:32:31.111Z,14.70
2022-10-12T13:35:06.110Z,11.93
2022-10-12T13:37:34.982Z,18.17
2022-10-12T13:40:01.883Z,16.47
2022-10-12T13:42:33.621Z,15.47
2022-10-12T13:45:02.844Z,12.37
2022-10-12T13:47:42.351Z,12.87
2022-10-12T13:50:18.268Z,14.10
2022-10-12T13:52:55.817Z,17.77
2022-10-12T13:55:26.692Z,18.50
2022-10-12T13:57:53.450Z,16.23
2022-10-12T14:00:25.343Z,17.83
2022-10-12T14:03:00.029Z,17.13
2022-10-12T14:05:29.319Z,21.77
2022-10-12T14:08:09.929Z,19.43
2022-10-12T14:10:38.013Z,14.53
2022-10-12T14:13:07.141Z,16.97
2022-10-12T14:15:39.653Z,20.30
2022-10-12T14:18:36.184Z,16.00
2022-10-12T14:21:23.549Z,14.10
2022-10-12T14:23:55.688Z,11.93
2022-10-12T14:26:34.979Z,16.07
2022-10-12T14:29:26.060Z,15.03
2022-10-12T14:31:55.540Z,16.10
2022-10-12T14:34:28.714Z,13.47
2022-10-12T14:37:16.594Z,14.77
2022-10-12T14:39:45.310Z,9.40
2022-10-12T14:42:34.285Z,14.90
2022-10-12T14:45:03.523Z,21.77
2022-10-12T14:47:38.081Z,14.43
2022-10-12T14:50:08.560Z,9.43
2022-10-12T14:52:42.899Z,14.93
2022-10-12T14:55:20.202Z,11.97
2022-10-12T14:57:47.809Z,11.40
2022-10-12T15:00:20.347Z,22.93
2022-10-12T15:02:47.577Z,14.10
2022-10-12T15:05:17.062Z,19.77
2022-10-12T15:07:43.846Z,15.77
2022-10-12T15:10:10.516Z,13.17
2022-10-12T15:12:37.358Z,12.00
2022-10-12T15:15:32.063Z,8.83
2022-10-12T15:17:58.999Z,17.30
2022-10-12T15:20:28.175Z,19.37
2022-10-12T15:22:54.919Z,17.70
2022-10-12T15:25:42.813Z,11.67
2022-10-12T15:28:09.464Z,10.20
2022-10-12T15:30:47.312Z,10.63
2022-10-12T15:33:23.994Z,15.87
2022-10-12T15:35:50.900Z,16.30
2022-10-12T15:38:17.665Z,12.33
2022-10-12T15:40:46.165Z,16.90
2022-10-12T15:43:12.977Z,18.57
2022-10-12T15:45:41.103Z,12.47
2022-10-12T15:48:09.684Z,20.43
2022-10-12T15:50:42.558Z,21.77
2022-10-12T15:53:14.699Z,16.67
2022-10-12T15:55:41.333Z,17.73
2022-10-12T15:58:08.058Z,36.90
2022-10-12T16:00:34.819Z,20.93
2022-10-12T16:03:01.957Z,16.43
2022-10-12T16:05:36.774Z,17.77
2022-10-12T16:08:05.296Z,14.23
2022-10-12T16:10:34.931Z,18.87
2022-10-12T16:13:04.904Z,19.17
2022-10-12T16:15:34.011Z,22.70
2022-10-12T16:18:02.223Z,26.27
2022-10-12T16:20:31.203Z,20.13
2022-10-12T16:22:59.543Z,22.73
2022-10-12T16:25:27.565Z,23.13
2022-10-12T16:27:56.391Z,20.20
2022-10-12T16:30:24.522Z,24.10
2022-10-12T16:32:51.569Z,21.20
2022-10-12T16:35:18.835Z,19.27
2022-10-12T16:37:45.541Z,16.00
2022-10-12T16:40:13.236Z,24.50
2022-10-12T16:42:39.882Z,20.40
2022-10-12T16:45:07.464Z,18.10
2022-10-12T16:47:37.731Z,17.53
2022-10-12T16:50:07.476Z,22.47
2022-10-12T16:52:34.233Z,27.60
2022-10-12T16:55:01.025Z,23.80
2022-10-12T16:57:27.710Z,24.80
2022-10-12T16:59:54.606Z,22.47
2022-10-12T17:02:21.782Z,23.67
2022-10-12T17:04:48.523Z,23.00
2022-10-12T17:07:15.690Z,27.63
2022-10-12T17:09:42.910Z,14.17
2022-10-12T17:12:09.828Z,16.40
2022-10-12T17:14:36.575Z,21.07
2022-10-12T17:17:03.875Z,15.67
2022-10-12T17:19:32.381Z,17.30
2022-10-12T17:22:00.955Z,21.03
2022-10-12T17:24:29.552Z,26.17
2022-10-12T17:26:57.129Z,21.60
2022-10-12T17:29:25.963Z,17.63
2022-10-12T17:31:53.964Z,16.93
2022-10-12T17:34:25.060Z,14.23
2022-10-12T17:36:53.385Z,27.90
2022-10-12T17:39:20.963Z,20.60
2022-10-12T17:41:47.861Z,30.63
2022-10-12T17:44:15.476Z,23.67
2022-10-12T17:46:44.230Z,18.83
2022-10-12T17:49:24.275Z,19.93
2022-10-12T17:51:51.809Z,17.83
2022-10-12T17:54:19.640Z,26.37
2022-10-12T17:56:46.607Z,20.33
2022-10-12T17:59:15.225Z,24.13
2022-10-12T18:01:42.616Z,20.53
2022-10-12T18:04:11.235Z,25.80
2022-10-12T18:06:38.675Z,22.10
2022-10-12T18:09:06.734Z,18.20
2022-10-12T18:11:34.796Z,19.37
2022-10-12T18:14:02.037Z,18.43
2022-10-12T18:16:31.066Z,18.77
2022-10-12T18:18:59.359Z,27.77
2022-10-12T18:21:27.838Z,25.90
2022-10-12T18:23:54.584Z,18.20
2022-10-12T18:26:22.265Z,32.23
2022-10-12T18:28:50.363Z,27.30
2022-10-12T18:31:20.163Z,26.97
2022-10-12T18:33:47.594Z,24.33
2022-10-12T18:36:15.652Z,22.70
2022-10-12T18:38:43.078Z,26.63
2022-10-12T18:41:12.722Z,34.73
2022-10-12T18:43:40.096Z,28.13
2022-10-12T18:46:14.667Z,25.87
2022-10-12T18:48:41.463Z,23.93
2022-10-12T18:51:15.971Z,29.33
2022-10-12T18:53:42.626Z,31.40
2022-10-12T18:56:10.902Z,30.93
2022-10-12T18:58:41.876Z,25.10
2022-10-12T19:01:14.811Z,30.63
2022-10-12T19:03:42.264Z,28.40
2022-10-12T19:06:12.106Z,27.50
2022-10-12T19:08:39.098Z,30.93
2022-10-12T19:11:08.206Z,36.10
2022-10-12T19:13:36.414Z,25.57
2022-10-12T19:16:17.170Z,30.50
2022-10-12T19:18:44.074Z,27.80
2022-10-12T19:21:14.334Z,31.90
2022-10-12T19:23:41.694Z,29.50
2022-10-12T19:26:15.162Z,31.80
2022-10-12T19:28:42.404Z,24.87
2022-10-12T19:31:11.829Z,32.23
2022-10-12T19:33:39.565Z,32.53
2022-10-12T19:36:08.264Z,44.73
2022-10-12T19:38:35.223Z,30.87
2022-10-12T19:41:02.221Z,26.50
2022-10-12T19:43:29.331Z,27.53
2022-10-12T19:45:56.020Z,33.33
2022-10-12T19:48:22.764Z,28.87
2022-10-12T19:50:58.072Z,30.53
2022-10-12T19:53:24.866Z,27.20
2022-10-12T19:55:51.516Z,26.63
2022-10-12T19:58:18.164Z,33.60
2022-10-12T20:00:45.131Z,24.57
2022-10-12T20:03:13.154Z,26.37
2022-10-12T20:05:45.985Z,30.00
2022-10-12T20:08:12.995Z,30.40
2022-10-12T20:10:39.723Z,28.40
2022-10-12T20:13:06.368Z,29.53
2022-10-12T20:15:33.143Z,26.33
2022-10-12T20:17:59.785Z,34.63
2022-10-12T20:20:26.595Z,25.53
2022-10-12T20:22:53.283Z,27.57
2022-10-12T20:25:19.925Z,42.80
2022-10-12T20:27:46.582Z,28.97
2022-10-12T20:30:13.578Z,31.40
2022-10-12T20:32:40.216Z,25.80
2022-10-12T20:35:07.256Z,31.83
2022-10-12T20:37:34.360Z,26.80
2022-10-12T20:40:01.016Z,32.87
2022-10-12T20:42:28.176Z,28.53
2022-10-12T20:44:55.021Z,26.83
2022-10-12T20:47:21.792Z,29.93
2022-10-12T20:49:48.841Z,24.67
2022-10-12T20:52:15.749Z,42.10
2022-10-12T20:54:43.575Z,34.23
2022-10-12T20:57:10.219Z,24.10
2022-10-12T20:59:37.440Z,27.60
2022-10-12T21:02:04.602Z,25.97
2022-10-12T21:04:36.078Z,26.80
2022-10-12T21:07:04.865Z,23.50
2022-10-12T21:09:31.586Z,28.30
2022-10-12T21:11:58.259Z,28.50
2022-10-12T21:14:26.450Z,22.10
2022-10-12T21:16:53.362Z,28.27
2022-10-12T21:19:20.019Z,28.17
2022-10-12T21:21:46.766Z,24.27
2022-10-12T21:24:14.445Z,27.03
2022-10-12T21:26:41.703Z,21.73
2022-10-12T21:29:08.856Z,22.20
2022-10-12T21:31:35.689Z,24.13
2022-10-12T21:34:05.328Z,19.23
2022-10-12T21:36:35.325Z,25.63
2022-10-12T21:39:02.454Z,26.23
2022-10-12T21:41:30.356Z,22.37
2022-10-12T21:43:57.770Z,28.20
2022-10-12T21:46:27.538Z,24.33
2022-10-12T21:48:54.780Z,25.73
2022-10-12T21:51:23.373Z,22.10
2022-10-12T21:53:51.095Z,22.60
2022-10-12T21:56:20.349Z,25.53
2022-10-12T21:58:48.348Z,26.53
2022-10-12T22:01:26.920Z,23.50
2022-10-12T22:03:58.331Z,32.23
2022-10-12T22:06:26.883Z,22.20
2022-10-12T22:08:56.284Z,29.30
2022-10-12T22:11:23.700Z,26.90
2022-10-12T22:13:50.750Z,25.63
2022-10-12T22:16:18.720Z,20.90
2022-10-12T22:18:46.166Z,24.77
2022-10-12T22:21:18.278Z,24.10
2022-10-12T22:23:45.457Z,22.50
2022-10-12T22:26:14.882Z,25.97
2022-10-12T22:28:41.566Z,26.57
2022-10-12T22:31:10.097Z,25.80
2022-10-12T22:33:37.764Z,32.33
2022-10-12T22:36:06.819Z,27.70
2022-10-12T22:38:34.823Z,25.67
2022-10-12T22:41:05.226Z,28.47
2022-10-12T22:43:33.467Z,26.33
2022-10-12T22:46:00.555Z,39.23
2022-10-12T22:48:28.007Z,30.27
2022-10-12T22:50:54.795Z,31.73
2022-10-12T22:53:25.266Z,28.50
2022-10-12T22:56:01.074Z,34.67
2022-10-12T22:58:28.469Z,23.50
2022-10-12T23:01:03.155Z,33.00
2022-10-12T23:03:31.385Z,28.20
2022-10-12T23:05:58.389Z,27.23
2022-10-12T23:08:26.123Z,33.20
2022-10-12T23:10:53.277Z,29.53
2022-10-12T23:13:20.173Z,29.80
2022-10-12T23:15:47.130Z,26.57
2022-10-12T23:18:14.643Z,30.77
2022-10-12T23:20:41.713Z,34.07
2022-10-12T23:23:08.597Z,31.20
2022-10-12T23:25:35.255Z,23.67
2022-10-12T23:28:01.894Z,28.33
2022-10-12T23:30:28.564Z,25.90
2022-10-12T23:32:55.217Z,32.10
2022-10-12T23:35:21.882Z,28.90
2022-10-12T23:37:48.543Z,24.23
2022-10-12T23:40:15.313Z,29.33
2022-10-12T23:42:41.985Z,24.63
2022-10-12T23:45:09.002Z,27.90
2022-10-12T23:47:35.719Z,25.33
2022-10-12T23:50:02.470Z,26.43
2022-10-12T23:52:29.237Z,30.50
2022-10-12T23:54:56.016Z,25.10
2022-10-12T23:57:45.545Z,29.17
